Aérodrome :
LOGIN :

S'inscrire | Disclaimer

   EN    FR    IT 

 










Légende :    VFR   VFR Marginal   IFR   IFR Intensif   IFR Très Intensif
Visi : 
Plafond : 
>= 8 km
>= 3000ft
5 à 8 km
1000 à 3000 ft
1500m à 5 km
500 à 1000 ft
800 à 1500m
200 à 500 ft
< 800m
< 200 ft
Symboles :   Orages  Brouillard  Fortes neiges  Fortes précipitations  Vent > 20 kt
SIGMETs :   Divers  Orages  Givrage  Turbulence  Onde Orograph.  Cendres Volcan.







- Altitude de l'aérodrome : 1487 ft
- Code IATA : MUC


EDDM - München Franz Josef Strauss

DERNIER METAR :
  • 160520Z 00000KT 5000 1000NE R08L/P2000N R08R/P2000N BCFG NSC M04/M05 Q1029 NOSIG

METARs EXPIRÉS :
  • 160450Z 30003KT 4000 1000NE R08L/1400VP2000N R08R/P2000N BCFG NSC M04/M04 Q1029 NOSIG
  • 160420Z 15001KT 3000 1000SW R08L/0325V0650N R26L/P2000N BCFG NSC M03/M04 Q1029 NOSIG
  • 160350Z VRB01KT 3000 0800N R08L/0450N R26L/P2000N BCFG NSC M04/M05 Q1029 NOSIG
  • 160320Z VRB01KT 3000 0800N R08L/0350V0600N R08R/0325V0500N BCFG NSC M04/M04 Q1029 NOSIG
  • 160250Z 00000KT 3000 0800SW R08L/0375V0650U R08R/0400V0700U BCFG NSC M04/M05 Q1029 NOSIG

TAF TAF EDDM
Valide du 16 à 06h jusqu'au 17 à 12h UTC


160500Z 1606/1712 VRB03KT CAVOK
TEMPO 1606/1608 2500 BCFG
TEMPO 1701/1708 1400 BCFG
Pas de NOTAMs connus pour ce terrain.



MET'MAP, la Météo Aéronautique d'un coup d'oeil ! - Copyright ORBIFLY Décembre 2007 - Disclaimer

ORBIFLY MET'MAP TEAM :

Programmation & Développement : Alexandra Zaïnal
Conception & Développement : Baudouin d'Aumeries
Co-Programmation & Développement : Marc-Olivier Méhu
Soutien technique & logistique : Manuel Goepfert

Contact : metmap@orbifly.com




SOURCES & CREDITS :

   NOAA